createdAt,value
2018-12-06T00:00:20.382Z,-2.7
2018-12-06T00:01:30.312Z,-2.72
2018-12-06T00:02:40.088Z,-2.72
2018-12-06T00:03:50.042Z,-2.66
2018-12-06T00:04:59.972Z,-2.72
2018-12-06T00:06:09.913Z,-2.76
2018-12-06T00:07:19.851Z,-2.76
2018-12-06T00:08:29.829Z,-2.66
2018-12-06T00:09:39.762Z,-2.7
2018-12-06T00:10:49.691Z,-2.73
2018-12-06T00:11:59.625Z,-2.65
2018-12-06T00:13:09.556Z,-2.48
2018-12-06T00:14:19.534Z,-2.57
2018-12-06T00:15:29.470Z,-2.51
2018-12-06T00:16:39.400Z,-2.42
2018-12-06T00:17:49.333Z,-2.42
2018-12-06T00:18:59.264Z,-2.39
2018-12-06T00:20:09.191Z,-2.39
2018-12-06T00:21:19.120Z,-2.4
2018-12-06T00:22:29.072Z,-2.37
2018-12-06T00:23:39.013Z,-2.34
2018-12-06T00:24:48.945Z,-2.37
2018-12-06T00:25:58.931Z,-2.39
2018-12-06T00:27:08.857Z,-2.36
2018-12-06T00:28:18.782Z,-2.36
2018-12-06T00:29:28.716Z,-2.39
2018-12-06T00:30:38.650Z,-2.36
2018-12-06T00:31:48.676Z,-2.28
2018-12-06T00:32:58.605Z,-2.33
2018-12-06T00:34:08.545Z,-2.37
2018-12-06T00:35:18.476Z,-2.36
2018-12-06T00:36:28.407Z,-2.28
2018-12-06T00:37:38.435Z,-2.29
2018-12-06T00:38:48.367Z,-2.39
2018-12-06T00:39:58.301Z,-2.37
2018-12-06T00:41:08.227Z,-2.45
2018-12-06T00:42:18.155Z,-2.48
2018-12-06T00:43:28.196Z,-2.57
2018-12-06T00:44:38.128Z,-2.57
2018-12-06T00:45:48.086Z,-2.62
2018-12-06T00:46:58.012Z,-2.58
2018-12-06T00:48:07.941Z,-2.66
2018-12-06T00:49:17.978Z,-2.72
2018-12-06T00:50:27.904Z,-2.66
2018-12-06T00:51:37.833Z,-2.69
2018-12-06T00:52:47.779Z,-2.73
2018-12-06T00:53:57.712Z,-2.68
2018-12-06T00:55:07.746Z,-2.76
2018-12-06T00:56:17.677Z,-2.8
2018-12-06T00:57:27.606Z,-2.7
2018-12-06T00:58:37.536Z,-2.8
2018-12-06T00:59:47.464Z,-2.73
2018-12-06T01:00:57.496Z,-2.76
2018-12-06T01:02:07.424Z,-2.84
2018-12-06T01:03:17.415Z,-2.76
2018-12-06T01:04:27.349Z,-2.84
2018-12-06T01:05:37.278Z,-2.91
2018-12-06T01:06:47.256Z,-2.91
2018-12-06T01:07:57.191Z,-2.76
2018-12-06T01:09:06.869Z,-2.9
2018-12-06T01:10:16.792Z,-2.84
2018-12-06T01:11:26.723Z,-2.9
2018-12-06T01:12:36.699Z,-2.84
2018-12-06T01:13:46.660Z,-2.87
2018-12-06T01:14:56.591Z,-2.89
2018-12-06T01:16:06.522Z,-2.93
2018-12-06T01:17:16.458Z,-2.91
2018-12-06T01:18:26.502Z,-2.91
2018-12-06T01:19:36.432Z,-2.94
2018-12-06T01:20:46.363Z,-2.91
2018-12-06T01:21:56.292Z,-3.02
2018-12-06T01:23:06.217Z,-2.99
2018-12-06T01:24:16.202Z,-2.98
2018-12-06T01:25:26.134Z,-2.98
2018-12-06T01:26:36.059Z,-2.99
2018-12-06T01:27:45.982Z,-2.94
2018-12-06T01:28:55.911Z,-2.99
2018-12-06T01:30:05.994Z,-3.01
2018-12-06T01:31:15.925Z,-3.02
2018-12-06T01:32:25.852Z,-2.99
2018-12-06T01:33:35.782Z,-3.04
2018-12-06T01:34:45.717Z,-3.04
2018-12-06T01:35:55.747Z,-2.99
2018-12-06T01:37:05.679Z,-3.01
2018-12-06T01:38:15.610Z,-2.98
2018-12-06T01:39:25.539Z,-3.05
2018-12-06T01:40:35.469Z,-2.98
2018-12-06T01:41:45.498Z,-2.91
2018-12-06T01:42:55.427Z,-2.87
2018-12-06T01:44:05.355Z,-2.91
2018-12-06T01:45:15.288Z,-2.86
2018-12-06T01:46:25.213Z,-2.93
2018-12-06T01:47:35.248Z,-2.86
2018-12-06T01:48:45.183Z,-2.86
2018-12-06T01:49:55.113Z,-2.86
2018-12-06T01:51:05.040Z,-2.84
2018-12-06T01:52:14.722Z,-2.81
2018-12-06T01:53:24.699Z,-2.84
2018-12-06T01:54:34.626Z,-2.9
2018-12-06T01:55:44.548Z,-2.89
2018-12-06T01:56:54.482Z,-2.84
2018-12-06T01:58:04.412Z,-2.84
2018-12-06T01:59:14.497Z,-2.83
2018-12-06T02:00:24.427Z,-2.89
2018-12-06T02:01:34.366Z,-2.91
2018-12-06T02:02:44.365Z,-2.83
2018-12-06T02:03:54.299Z,-2.9
2018-12-06T02:05:04.278Z,-2.84
2018-12-06T02:06:14.305Z,-2.87
2018-12-06T02:07:24.233Z,-2.87
2018-12-06T02:08:34.165Z,-2.89
2018-12-06T02:09:44.098Z,-2.86
2018-12-06T02:10:54.277Z,-2.93
2018-12-06T02:12:04.220Z,-2.96
2018-12-06T02:13:14.151Z,-2.98
2018-12-06T02:14:24.077Z,-2.87
2018-12-06T02:15:34.010Z,-3.01
2018-12-06T02:16:44.089Z,-3.01
2018-12-06T02:17:54.016Z,-3.02
2018-12-06T02:19:03.945Z,-3.05
2018-12-06T02:20:13.879Z,-3.12
2018-12-06T02:21:23.568Z,-3.15
2018-12-06T02:22:33.553Z,-3.12
2018-12-06T02:23:43.488Z,-3.22
2018-12-06T02:24:53.415Z,-3.17
2018-12-06T02:26:03.341Z,-3.25
2018-12-06T02:27:13.277Z,-3.25
2018-12-06T02:28:23.261Z,-3.33
2018-12-06T02:29:33.187Z,-3.38
2018-12-06T02:30:43.130Z,-3.38
2018-12-06T02:31:52.814Z,-3.37
2018-12-06T02:33:02.751Z,-3.37
2018-12-06T02:34:12.741Z,-3.32
2018-12-06T02:35:22.417Z,-3.4
2018-12-06T02:36:32.352Z,-3.33
2018-12-06T02:37:42.296Z,-3.37
2018-12-06T02:38:51.988Z,-3.47
2018-12-06T02:40:02.022Z,-3.5
2018-12-06T02:41:11.729Z,-3.47
2018-12-06T02:42:21.680Z,-3.41
2018-12-06T02:43:31.631Z,-3.47
2018-12-06T02:44:41.565Z,-3.55
2018-12-06T02:45:51.769Z,-3.47
2018-12-06T02:47:01.709Z,-3.43
2018-12-06T02:48:11.649Z,-3.47
2018-12-06T02:49:21.575Z,-3.46
2018-12-06T02:50:31.257Z,-3.5
2018-12-06T02:51:41.245Z,-3.51
2018-12-06T02:52:51.181Z,-3.53
2018-12-06T02:54:01.111Z,-3.46
2018-12-06T02:55:11.046Z,-3.53
2018-12-06T02:56:20.974Z,-3.51
2018-12-06T02:57:30.957Z,-3.44
2018-12-06T02:58:40.888Z,-3.44
2018-12-06T02:59:50.580Z,-3.48
2018-12-06T03:01:00.517Z,-3.46
2018-12-06T03:02:10.446Z,-3.5
2018-12-06T03:03:20.484Z,-3.48
2018-12-06T03:04:30.418Z,-3.47
2018-12-06T03:05:40.103Z,-3.44
2018-12-06T03:06:50.030Z,-3.41
2018-12-06T03:07:59.960Z,-3.36
2018-12-06T03:09:10.008Z,-3.4
2018-12-06T03:10:19.943Z,-3.38
2018-12-06T03:11:29.873Z,-3.38
2018-12-06T03:12:39.813Z,-3.41
2018-12-06T03:13:49.763Z,-3.23
2018-12-06T03:14:59.749Z,-3.32
2018-12-06T03:16:09.690Z,-3.3
2018-12-06T03:17:19.640Z,-3.23
2018-12-06T03:18:29.570Z,-3.25
2018-12-06T03:19:39.494Z,-3.22
2018-12-06T03:20:49.481Z,-3.32
2018-12-06T03:21:59.417Z,-3.26
2018-12-06T03:23:09.351Z,-3.23
2018-12-06T03:24:19.296Z,-3.15
2018-12-06T03:25:29.229Z,-3.36
2018-12-06T03:26:39.283Z,-3.4
2018-12-06T03:27:49.227Z,-3.44
2018-12-06T03:28:59.156Z,-3.36
2018-12-06T03:30:10.089Z,-3.37
2018-12-06T03:31:20.057Z,-3.38
2018-12-06T03:32:30.059Z,-3.44
2018-12-06T03:33:40.026Z,-3.47
2018-12-06T03:34:50.016Z,-3.48
2018-12-06T03:35:59.955Z,-3.48
2018-12-06T03:37:09.896Z,-3.46
2018-12-06T03:38:19.832Z,-3.44
2018-12-06T03:39:29.765Z,-3.4
2018-12-06T03:40:39.696Z,-3.37
2018-12-06T03:41:49.378Z,-3.37
2018-12-06T03:42:59.313Z,-3.38
2018-12-06T03:44:09.300Z,-3.44
2018-12-06T03:45:19.233Z,-3.38
2018-12-06T03:46:29.165Z,-3.4
2018-12-06T03:47:39.102Z,-3.37
2018-12-06T03:48:49.090Z,-3.37
2018-12-06T03:49:59.069Z,-3.38
2018-12-06T03:51:09.023Z,-3.38
2018-12-06T03:52:18.962Z,-3.37
2018-12-06T03:53:28.897Z,-3.4
2018-12-06T03:54:38.830Z,-3.37
2018-12-06T03:55:48.888Z,-3.47
2018-12-06T03:56:58.836Z,-3.48
2018-12-06T03:58:08.769Z,-3.44
2018-12-06T03:59:18.700Z,-3.47
2018-12-06T04:00:28.386Z,-3.47
2018-12-06T04:01:38.424Z,-3.47
2018-12-06T04:02:48.377Z,-3.51
2018-12-06T04:03:58.428Z,-3.48
2018-12-06T04:05:08.370Z,-3.47
2018-12-06T04:06:18.316Z,-3.44
2018-12-06T04:07:28.251Z,-3.44
2018-12-06T04:08:38.197Z,-3.43
2018-12-06T04:09:48.121Z,-3.36
2018-12-06T04:10:58.058Z,-3.43
2018-12-06T04:12:08.085Z,-3.47
2018-12-06T04:13:18.015Z,-3.44
2018-12-06T04:14:27.949Z,-3.43
2018-12-06T04:15:37.888Z,-3.44
2018-12-06T04:16:47.854Z,-3.43
2018-12-06T04:17:57.784Z,-3.46
2018-12-06T04:19:07.814Z,-3.48
2018-12-06T04:20:17.760Z,-3.53
2018-12-06T04:21:27.697Z,-3.51
2018-12-06T04:22:37.623Z,-3.55
2018-12-06T04:23:47.554Z,-3.55
2018-12-06T04:24:57.587Z,-3.62
2018-12-06T04:26:07.528Z,-3.55
2018-12-06T04:27:17.466Z,-3.62
2018-12-06T04:28:27.403Z,-3.58
2018-12-06T04:29:37.376Z,-3.51
2018-12-06T04:30:47.409Z,-3.48
2018-12-06T04:31:57.342Z,-3.47
2018-12-06T04:33:07.283Z,-3.51
2018-12-06T04:34:17.238Z,-3.64
2018-12-06T04:35:27.326Z,-3.58
2018-12-06T04:36:37.409Z,-3.59
2018-12-06T04:37:47.376Z,-3.61
2018-12-06T04:38:57.304Z,-3.62
2018-12-06T04:40:07.247Z,-3.58
2018-12-06T04:41:17.177Z,-3.56
2018-12-06T04:42:27.168Z,-3.69
2018-12-06T04:43:37.106Z,-3.65
2018-12-06T04:44:47.071Z,-3.69
2018-12-06T04:45:56.996Z,-3.8
2018-12-06T04:47:06.955Z,-3.74
2018-12-06T04:48:24.206Z,-3.85
2018-12-06T04:49:34.142Z,-3.81
2018-12-06T04:50:44.073Z,-3.88
2018-12-06T04:51:54.010Z,-3.83
2018-12-06T04:53:03.937Z,-3.87
2018-12-06T04:54:13.986Z,-3.83
2018-12-06T04:55:23.919Z,-3.95
2018-12-06T04:56:33.870Z,-3.81
2018-12-06T04:57:43.809Z,-3.8
2018-12-06T04:58:53.748Z,-3.83
2018-12-06T05:00:03.799Z,-3.83
2018-12-06T05:01:13.758Z,-3.83
2018-12-06T05:02:23.692Z,-3.9
2018-12-06T05:03:33.629Z,-3.96
2018-12-06T05:04:43.559Z,-3.99
2018-12-06T05:05:53.595Z,-3.98
2018-12-06T05:07:03.524Z,-4.02
2018-12-06T05:08:13.205Z,-3.99
2018-12-06T05:09:23.139Z,-3.9
2018-12-06T05:10:33.069Z,-3.91
2018-12-06T05:11:43.173Z,-3.95
2018-12-06T05:12:53.099Z,-3.91
2018-12-06T05:14:03.025Z,-3.95
2018-12-06T05:15:12.960Z,-3.98
2018-12-06T05:16:22.892Z,-4.02
2018-12-06T05:17:32.669Z,-4.14
2018-12-06T05:18:42.594Z,-4.22
2018-12-06T05:19:52.523Z,-4.14
2018-12-06T05:21:02.447Z,-4.14
2018-12-06T05:22:12.380Z,-4.14
2018-12-06T05:23:22.413Z,-4.12
2018-12-06T05:24:32.347Z,-4.19
2018-12-06T05:25:42.278Z,-4.2
2018-12-06T05:26:52.209Z,-4.17
2018-12-06T05:28:02.188Z,-4.26
2018-12-06T05:29:12.218Z,-4.26
2018-12-06T05:30:22.161Z,-4.19
2018-12-06T05:31:32.092Z,-4.24
2018-12-06T05:32:42.027Z,-4.19
2018-12-06T05:33:52.044Z,-4.17
2018-12-06T05:35:01.992Z,-4.3
2018-12-06T05:36:11.920Z,-4.17
2018-12-06T05:37:21.849Z,-4.2
2018-12-06T05:38:31.779Z,-4.23
2018-12-06T05:39:41.713Z,-4.3
2018-12-06T05:40:51.694Z,-4.35
2018-12-06T05:42:01.631Z,-4.3
2018-12-06T05:43:11.557Z,-4.34
2018-12-06T05:44:21.481Z,-4.37
2018-12-06T05:45:31.411Z,-4.4
2018-12-06T05:46:41.443Z,-4.44
2018-12-06T05:47:51.377Z,-4.42
2018-12-06T05:49:01.299Z,-4.41
2018-12-06T05:50:11.229Z,-4.47
2018-12-06T05:51:20.993Z,-4.52
2018-12-06T05:52:30.967Z,-4.53
2018-12-06T05:53:40.893Z,-4.49
2018-12-06T05:54:50.823Z,-4.44
2018-12-06T05:56:00.746Z,-4.42
2018-12-06T05:57:10.673Z,-4.35
2018-12-06T05:58:20.697Z,-4.27
2018-12-06T05:59:30.728Z,-4.27
2018-12-06T06:00:40.654Z,-4.14
2018-12-06T06:01:50.585Z,-4.19
2018-12-06T06:03:00.514Z,-4.16
2018-12-06T06:04:10.248Z,-4.19
2018-12-06T06:05:20.176Z,-4.04
2018-12-06T06:06:30.101Z,-4.05
2018-12-06T06:07:40.033Z,-3.96
2018-12-06T06:08:49.960Z,-3.98
2018-12-06T06:09:59.992Z,-3.91
2018-12-06T06:11:09.923Z,-3.94
2018-12-06T06:12:19.853Z,-3.88
2018-12-06T06:13:29.792Z,-3.88
2018-12-06T06:14:39.721Z,-3.81
2018-12-06T06:15:49.755Z,-3.78
2018-12-06T06:16:59.759Z,-3.8
2018-12-06T06:18:09.685Z,-3.74
2018-12-06T06:19:19.617Z,-3.74
2018-12-06T06:20:29.543Z,-3.56
2018-12-06T06:21:39.529Z,-3.59
2018-12-06T06:22:49.454Z,-3.56
2018-12-06T06:23:59.384Z,-3.59
2018-12-06T06:25:09.323Z,-3.53
2018-12-06T06:26:19.255Z,-3.5
2018-12-06T06:27:31.157Z,-3.5
2018-12-06T06:28:40.855Z,-3.53
2018-12-06T06:29:50.787Z,-3.48
2018-12-06T06:31:00.711Z,-3.46
2018-12-06T06:32:10.635Z,-3.41
2018-12-06T06:33:20.715Z,-3.4
2018-12-06T06:34:30.650Z,-3.4
2018-12-06T06:35:40.578Z,-3.38
2018-12-06T06:36:50.505Z,-3.23
2018-12-06T06:38:00.441Z,-3.25
2018-12-06T06:39:10.419Z,-3.19
2018-12-06T06:40:20.357Z,-3.2
2018-12-06T06:41:30.287Z,-3.11
2018-12-06T06:42:40.221Z,-3.12
2018-12-06T06:43:50.151Z,-3.07
2018-12-06T06:45:00.175Z,-3.05
2018-12-06T06:46:10.109Z,-3.02
2018-12-06T06:47:20.034Z,-2.99
2018-12-06T06:48:29.996Z,-3.01
2018-12-06T06:49:39.930Z,-3.04
2018-12-06T06:50:49.958Z,-3.01
2018-12-06T06:51:59.890Z,-2.94
2018-12-06T06:53:09.834Z,-2.89
2018-12-06T06:54:19.771Z,-2.89
2018-12-06T06:55:29.707Z,-2.83
2018-12-06T06:56:39.640Z,-2.7
2018-12-06T06:57:49.571Z,-2.84
2018-12-06T06:59:01.059Z,-2.69
2018-12-06T07:00:10.991Z,-2.69
2018-12-06T07:01:20.920Z,-2.72
2018-12-06T07:02:31.007Z,-2.69
2018-12-06T07:03:40.940Z,-2.75
2018-12-06T07:04:50.869Z,-2.72
2018-12-06T07:06:00.795Z,-2.73
2018-12-06T07:07:10.724Z,-2.68
2018-12-06T07:08:20.767Z,-2.8
2018-12-06T07:09:30.698Z,-2.84
2018-12-06T07:10:40.623Z,-2.76
2018-12-06T07:11:50.556Z,-2.76
2018-12-06T07:13:00.493Z,-2.81
2018-12-06T07:14:10.574Z,-2.78
2018-12-06T07:15:20.548Z,-2.76
2018-12-06T07:16:30.480Z,-2.76
2018-12-06T07:17:40.417Z,-2.8
2018-12-06T07:18:50.354Z,-2.76
2018-12-06T07:20:00.431Z,-2.75
2018-12-06T07:21:10.357Z,-2.68
2018-12-06T07:22:20.286Z,-2.62
2018-12-06T07:23:30.216Z,-2.65
2018-12-06T07:24:40.143Z,-2.68
2018-12-06T07:25:51.342Z,-2.68
2018-12-06T07:27:01.278Z,-2.58
2018-12-06T07:28:11.206Z,-2.72
2018-12-06T07:29:21.138Z,-2.69
2018-12-06T07:30:31.064Z,-2.69
2018-12-06T07:31:41.041Z,-2.69
2018-12-06T07:32:50.968Z,-2.65
2018-12-06T07:34:00.912Z,-2.7
2018-12-06T07:35:10.844Z,-2.69
2018-12-06T07:36:20.778Z,-2.69
2018-12-06T07:37:30.972Z,-2.72
2018-12-06T07:38:40.904Z,-2.75
2018-12-06T07:39:50.889Z,-2.73
2018-12-06T07:41:00.818Z,-2.75
2018-12-06T07:42:10.744Z,-2.68
2018-12-06T07:43:20.725Z,-2.72
2018-12-06T07:44:30.727Z,-2.69
2018-12-06T07:45:40.656Z,-2.73
2018-12-06T07:46:50.587Z,-2.7
2018-12-06T07:48:00.520Z,-2.73
2018-12-06T07:49:10.555Z,-2.72
2018-12-06T07:50:20.492Z,-2.72
2018-12-06T07:51:30.420Z,-2.68
2018-12-06T07:52:40.350Z,-2.72
2018-12-06T07:53:50.301Z,-2.69
2018-12-06T07:55:00.388Z,-2.7
2018-12-06T07:56:10.386Z,-2.75
2018-12-06T07:57:20.320Z,-2.72
2018-12-06T07:58:30.301Z,-2.69
2018-12-06T07:59:40.239Z,-2.66
2018-12-06T08:00:50.167Z,-2.69
2018-12-06T08:02:00.094Z,-2.66
2018-12-06T08:03:10.023Z,-2.65
2018-12-06T08:04:19.958Z,-2.58
2018-12-06T08:05:29.647Z,-2.55
2018-12-06T08:06:39.729Z,-2.58
2018-12-06T08:07:49.657Z,-2.52
2018-12-06T08:08:59.589Z,-2.52
2018-12-06T08:10:09.523Z,-2.48
2018-12-06T08:11:19.467Z,-2.57
2018-12-06T08:12:29.295Z,-2.52
2018-12-06T08:13:39.227Z,-2.52
2018-12-06T08:14:49.158Z,-2.47
2018-12-06T08:15:59.088Z,-2.5
2018-12-06T08:17:09.014Z,-2.57
2018-12-06T08:18:18.993Z,-2.5
2018-12-06T08:19:28.918Z,-2.54
2018-12-06T08:22:20.616Z,-2.42
2018-12-06T08:23:30.701Z,-2.48
2018-12-06T08:24:40.630Z,-2.36
2018-12-06T08:25:50.562Z,-2.37
2018-12-06T08:27:00.487Z,-2.29
2018-12-06T08:28:10.431Z,-2.28
2018-12-06T08:29:20.263Z,-2.18
2018-12-06T08:30:30.203Z,-2.2
2018-12-06T08:31:40.131Z,-2.28
2018-12-06T08:32:49.808Z,-2.25
2018-12-06T08:34:05.892Z,-2.34
2018-12-06T08:35:16.158Z,-2.28
2018-12-06T08:36:26.088Z,-2.33
2018-12-06T08:37:36.063Z,-2.32
2018-12-06T08:38:45.994Z,-2.45
2018-12-06T08:39:55.923Z,-2.45
2018-12-06T08:41:05.954Z,-2.36
2018-12-06T08:42:16.231Z,-2.42
2018-12-06T08:43:26.171Z,-2.42
2018-12-06T08:44:37.053Z,-2.4
2018-12-06T08:45:46.982Z,-2.44
2018-12-06T08:46:57.073Z,-2.54
2018-12-06T08:48:07.003Z,-2.54
2018-12-06T08:49:16.929Z,-2.5
2018-12-06T08:50:26.859Z,-2.63
2018-12-06T08:51:36.785Z,-2.55
2018-12-06T08:52:46.947Z,-2.62
2018-12-06T08:53:56.883Z,-2.62
2018-12-06T08:55:06.815Z,-2.62
2018-12-06T08:56:16.739Z,-2.62
2018-12-06T08:57:26.673Z,-2.58
2018-12-06T08:58:36.649Z,-2.5
2018-12-06T08:59:46.789Z,-2.52
2018-12-06T09:00:56.805Z,-2.54
2018-12-06T09:02:06.732Z,-2.48
2018-12-06T09:03:16.672Z,-2.37
2018-12-06T09:04:26.765Z,-2.37
2018-12-06T09:05:36.446Z,-2.39
2018-12-06T09:06:46.424Z,-2.44
2018-12-06T09:07:56.351Z,-2.51
2018-12-06T09:09:06.283Z,-2.61
2018-12-06T09:10:16.312Z,-2.61
2018-12-06T09:11:26.258Z,-2.68
2018-12-06T09:12:36.197Z,-2.72
2018-12-06T09:13:46.140Z,-2.78
2018-12-06T09:14:55.822Z,-2.93
2018-12-06T09:16:05.905Z,-2.83
2018-12-06T09:17:15.578Z,-2.91
2018-12-06T09:18:25.511Z,-2.96
2018-12-06T09:19:35.459Z,-2.98
2018-12-06T09:20:45.472Z,-3.14
2018-12-06T09:21:55.524Z,-3.09
2018-12-06T09:23:05.457Z,-3.09
2018-12-06T09:24:15.388Z,-3.05
2018-12-06T09:25:26.243Z,-3.11
2018-12-06T09:26:36.186Z,-3.05
2018-12-06T09:27:46.294Z,-3.08
2018-12-06T09:28:56.228Z,-2.99
2018-12-06T09:30:06.156Z,-2.98
2018-12-06T09:31:16.087Z,-2.98
2018-12-06T09:32:26.019Z,-2.96
2018-12-06T09:33:36.068Z,-2.86
2018-12-06T09:34:45.999Z,-2.89
2018-12-06T09:35:55.930Z,-2.72
2018-12-06T09:37:05.887Z,-2.75
2018-12-06T09:38:15.829Z,-2.57
2018-12-06T09:39:25.585Z,-2.62
2018-12-06T09:40:35.512Z,-2.62
2018-12-06T09:41:45.447Z,-2.75
2018-12-06T09:42:55.379Z,-2.76
2018-12-06T09:44:05.309Z,-2.91
2018-12-06T09:45:15.299Z,-2.87
2018-12-06T09:46:25.322Z,-2.91
2018-12-06T09:47:35.260Z,-2.98
2018-12-06T09:48:45.193Z,-2.9
2018-12-06T09:49:55.123Z,-2.9
2018-12-06T09:51:05.270Z,-2.9
2018-12-06T09:52:15.209Z,-2.86
2018-12-06T09:53:25.145Z,-2.84
2018-12-06T09:54:35.085Z,-2.76
2018-12-06T09:55:45.013Z,-2.75
2018-12-06T09:56:55.096Z,-2.9
2018-12-06T09:58:05.027Z,-2.84
2018-12-06T09:59:14.963Z,-2.83
2018-12-06T10:00:24.896Z,-2.81
2018-12-06T10:01:34.832Z,-2.84
2018-12-06T10:02:44.911Z,-2.94
2018-12-06T10:03:54.845Z,-2.89
2018-12-06T10:05:04.784Z,-2.8
2018-12-06T10:06:14.715Z,-2.7
2018-12-06T10:07:24.650Z,-2.89
2018-12-06T10:08:34.734Z,-2.84
2018-12-06T10:09:44.664Z,-2.83
2018-12-06T10:10:54.592Z,-2.89
2018-12-06T10:12:04.520Z,-2.91
2018-12-06T10:13:14.448Z,-2.89
2018-12-06T10:14:24.625Z,-2.9
2018-12-06T10:15:34.560Z,-2.84
2018-12-06T10:16:44.491Z,-2.89
2018-12-06T10:17:54.426Z,-2.83
2018-12-06T10:19:04.360Z,-2.91
2018-12-06T10:20:14.448Z,-2.89
2018-12-06T10:21:24.376Z,-2.89
2018-12-06T10:22:34.307Z,-2.94
2018-12-06T10:23:44.383Z,-2.98
2018-12-06T10:24:54.326Z,-3.05
2018-12-06T10:26:04.407Z,-2.98
2018-12-06T10:27:14.342Z,-3.01
2018-12-06T10:28:24.275Z,-2.99
2018-12-06T10:29:34.208Z,-3.08
2018-12-06T10:30:44.145Z,-3.02
2018-12-06T10:31:54.247Z,-3.08
2018-12-06T10:33:04.179Z,-3.05
2018-12-06T10:34:14.114Z,-3.05
2018-12-06T10:35:24.043Z,-3.02
2018-12-06T10:36:33.979Z,-3.01
2018-12-06T10:37:44.062Z,-2.99
2018-12-06T10:38:54.002Z,-2.99
2018-12-06T10:40:03.689Z,-3.02
2018-12-06T10:41:13.630Z,-2.9
2018-12-06T10:42:23.564Z,-2.9
2018-12-06T10:43:33.498Z,-2.87
2018-12-06T10:44:43.433Z,-2.89
2018-12-06T10:45:53.357Z,-2.83
2018-12-06T10:47:03.032Z,-2.87
2018-12-06T10:48:13.030Z,-2.83
2018-12-06T10:49:23.059Z,-2.89
2018-12-06T10:50:32.996Z,-2.8
2018-12-06T10:51:42.923Z,-2.86
2018-12-06T10:52:52.853Z,-2.8
2018-12-06T10:54:02.778Z,-2.68
2018-12-06T10:55:12.779Z,-2.69
2018-12-06T10:56:22.723Z,-2.72
2018-12-06T10:57:32.651Z,-2.66
2018-12-06T10:58:42.577Z,-2.66
2018-12-06T10:59:52.502Z,-2.73
2018-12-06T11:01:02.679Z,-2.66
2018-12-06T11:02:12.615Z,-2.62
2018-12-06T11:03:22.545Z,-2.66
2018-12-06T11:04:32.486Z,-2.66
2018-12-06T11:05:42.416Z,-2.72
2018-12-06T11:06:52.544Z,-2.8
2018-12-06T11:08:02.483Z,-2.89
2018-12-06T11:09:12.418Z,-2.81
2018-12-06T11:10:22.363Z,-2.8
2018-12-06T11:11:32.302Z,-2.94
2018-12-06T11:12:42.479Z,-2.91
2018-12-06T11:13:52.427Z,-3.01
2018-12-06T11:15:02.361Z,-2.94
2018-12-06T11:16:12.295Z,-3.02
2018-12-06T11:17:22.229Z,-2.93
2018-12-06T11:18:32.161Z,-2.94
2018-12-06T11:19:42.099Z,-2.72
2018-12-06T11:20:51.777Z,-2.73
2018-12-06T11:22:01.705Z,-2.8
2018-12-06T11:23:11.645Z,-2.73
2018-12-06T11:24:21.590Z,-2.89
2018-12-06T11:25:31.523Z,-2.87
2018-12-06T11:26:41.454Z,-2.78
2018-12-06T11:27:51.147Z,-2.83
2018-12-06T11:29:01.082Z,-2.87
2018-12-06T11:30:11.115Z,-2.83
2018-12-06T11:31:21.044Z,-2.93
2018-12-06T11:32:30.978Z,-2.96
2018-12-06T11:33:40.908Z,-2.96
2018-12-06T11:34:50.836Z,-2.94
2018-12-06T11:36:00.768Z,-3.02
2018-12-06T11:37:10.696Z,-3.01
2018-12-06T11:38:20.623Z,-3.01
2018-12-06T11:39:30.561Z,-2.94
2018-12-06T11:40:40.486Z,-2.93
2018-12-06T11:41:50.415Z,-2.93
2018-12-06T11:43:00.339Z,-2.87
2018-12-06T11:44:10.267Z,-2.9
2018-12-06T11:45:20.199Z,-2.94
2018-12-06T11:46:30.131Z,-2.91
2018-12-06T11:47:40.160Z,-2.98
2018-12-06T11:48:50.095Z,-2.91
2018-12-06T11:50:00.033Z,-2.91
2018-12-06T11:51:09.962Z,-2.76
2018-12-06T11:52:19.904Z,-2.66
2018-12-06T11:53:29.837Z,-2.75
2018-12-06T11:54:39.764Z,-2.68
2018-12-06T11:55:49.699Z,-2.68
2018-12-06T11:56:59.708Z,-2.57
2018-12-06T11:58:16.199Z,-2.55
2018-12-06T11:59:26.228Z,-2.54
2018-12-06T12:00:36.210Z,-2.54
2018-12-06T12:01:45.886Z,-2.48
2018-12-06T12:02:55.813Z,-2.51
2018-12-06T12:04:05.741Z,-2.42
2018-12-06T12:05:15.668Z,-2.39
2018-12-06T12:06:25.595Z,-2.48
2018-12-06T12:07:35.538Z,-2.37
2018-12-06T12:08:45.474Z,-2.48
2018-12-06T12:09:55.401Z,-2.44
2018-12-06T12:11:05.447Z,-2.39
2018-12-06T12:12:15.388Z,-2.44
2018-12-06T12:13:25.314Z,-2.42
2018-12-06T12:14:35.244Z,-2.42
2018-12-06T12:15:45.186Z,-2.4
2018-12-06T12:16:55.220Z,-2.34
2018-12-06T12:18:05.161Z,-2.32
2018-12-06T12:19:15.096Z,-2.33
2018-12-06T12:20:25.030Z,-2.39
2018-12-06T12:21:34.959Z,-2.33
2018-12-06T12:22:44.809Z,-2.18
2018-12-06T12:23:54.740Z,-2.23
2018-12-06T12:25:04.669Z,-2.28
2018-12-06T12:26:14.603Z,-2.23
2018-12-06T12:27:24.548Z,-2.14
2018-12-06T12:28:34.635Z,-2.2
2018-12-06T12:29:44.581Z,-2.13
2018-12-06T12:30:54.517Z,-2.15
2018-12-06T12:32:04.443Z,-2.1
2018-12-06T12:33:14.381Z,-2.1
2018-12-06T12:34:24.309Z,-2.04
2018-12-06T12:35:34.303Z,-2.08
2018-12-06T12:36:44.241Z,-2.08
2018-12-06T12:37:54.172Z,-2
2018-12-06T12:39:03.867Z,-2
2018-12-06T12:40:14.052Z,-2.02
2018-12-06T12:41:23.986Z,-2.04
2018-12-06T12:42:33.922Z,-2.02
2018-12-06T12:43:43.850Z,-2.04
2018-12-06T12:44:53.789Z,-2.02
2018-12-06T12:46:03.772Z,-2.02
2018-12-06T12:47:13.700Z,-2.07
2018-12-06T12:48:23.651Z,-2.02
2018-12-06T12:49:33.582Z,-1.99
2018-12-06T12:50:43.519Z,-2.02
2018-12-06T12:51:53.441Z,-2.05
2018-12-06T12:53:03.372Z,-2.02
2018-12-06T12:54:13.311Z,-1.99
2018-12-06T12:55:23.242Z,-2.04
2018-12-06T12:56:33.172Z,-2
2018-12-06T12:57:43.203Z,-1.99
2018-12-06T12:58:53.138Z,-2
2018-12-06T13:00:03.081Z,-2.04
2018-12-06T13:01:13.015Z,-1.93
2018-12-06T13:02:22.945Z,-2.07
2018-12-06T13:03:32.977Z,-2.02
2018-12-06T13:04:42.901Z,-2
2018-12-06T13:05:52.835Z,-2.04
2018-12-06T13:07:02.782Z,-2.07
2018-12-06T13:08:12.756Z,-2
2018-12-06T13:09:22.909Z,-2.04
2018-12-06T13:10:32.840Z,-2.05
2018-12-06T13:11:42.788Z,-1.99
2018-12-06T13:12:52.771Z,-2
2018-12-06T13:14:02.704Z,-2.02
2018-12-06T13:15:12.765Z,-2.07
2018-12-06T13:16:22.706Z,-1.93
2018-12-06T13:17:32.633Z,-1.89
2018-12-06T13:18:42.563Z,-1.96
2018-12-06T13:19:52.496Z,-1.96
2018-12-06T13:21:02.580Z,-2
2018-12-06T13:22:12.523Z,-1.93
2018-12-06T13:23:22.216Z,-1.93
2018-12-06T13:24:32.149Z,-1.99
2018-12-06T13:25:42.146Z,-2
2018-12-06T13:26:52.196Z,-1.97
2018-12-06T13:28:02.133Z,-2
2018-12-06T13:29:12.066Z,-2
2018-12-06T13:30:22.004Z,-1.99
2018-12-06T13:31:31.935Z,-1.99
2018-12-06T13:32:41.963Z,-2.05
2018-12-06T13:33:51.891Z,-2
2018-12-06T13:35:01.821Z,-1.97
2018-12-06T13:36:11.757Z,-2.02
2018-12-06T13:37:21.687Z,-2.02
2018-12-06T13:38:31.616Z,-2.1
2018-12-06T13:39:41.545Z,-2.11
2018-12-06T13:40:51.475Z,-1.99
2018-12-06T13:42:01.412Z,-2.02
2018-12-06T13:43:11.098Z,-2
2018-12-06T13:44:21.178Z,-1.99
2018-12-06T13:45:31.117Z,-1.99
2018-12-06T13:46:41.049Z,-1.97
2018-12-06T13:47:50.986Z,-2.05
2018-12-06T13:49:00.920Z,-2.02
2018-12-06T13:50:10.951Z,-2.07
2018-12-06T13:51:20.882Z,-2.04
2018-12-06T13:52:30.812Z,-2
2018-12-06T13:53:40.744Z,-2.02
2018-12-06T13:54:50.672Z,-2.02
2018-12-06T13:56:00.611Z,-2
2018-12-06T13:57:10.596Z,-2.05
2018-12-06T13:58:20.527Z,-2.05
2018-12-06T13:59:30.460Z,-1.97
2018-12-06T14:00:40.791Z,-2.02
2018-12-06T14:01:51.540Z,-2
2018-12-06T14:03:01.485Z,-1.96
2018-12-06T14:04:11.420Z,-2.02
2018-12-06T14:05:21.355Z,-2
2018-12-06T14:06:31.036Z,-2.04
2018-12-06T14:07:41.117Z,-2.22
2018-12-06T14:08:51.052Z,-2.36
2018-12-06T14:10:00.996Z,-2.42
2018-12-06T14:11:10.700Z,-2.44
2018-12-06T14:12:20.646Z,-2.42
2018-12-06T14:13:30.593Z,-2.44
2018-12-06T14:14:40.529Z,-2.36
2018-12-06T14:15:50.457Z,-2.39
2018-12-06T14:17:00.140Z,-2.48
2018-12-06T14:18:10.076Z,-2.29
2018-12-06T14:19:20.007Z,-2.36
2018-12-06T14:20:29.933Z,-2.36
2018-12-06T14:21:39.861Z,-2.25
2018-12-06T14:22:49.792Z,-2.15
2018-12-06T14:23:59.475Z,-2.22
2018-12-06T14:25:09.514Z,-2.23
2018-12-06T14:26:19.443Z,-2.23
2018-12-06T14:27:29.394Z,-2.13
2018-12-06T14:28:39.320Z,-2.13
2018-12-06T14:29:49.256Z,-2.15
2018-12-06T14:30:59.183Z,-2.13
2018-12-06T14:32:09.112Z,-2.11
2018-12-06T14:33:19.049Z,-2.13
2018-12-06T14:34:29.009Z,-2.13
2018-12-06T14:35:39.023Z,-2.25
2018-12-06T14:37:01.330Z,-2.17
2018-12-06T14:38:11.809Z,-2.22
2018-12-06T14:39:21.736Z,-2.2
2018-12-06T14:40:31.669Z,-2.2
2018-12-06T14:41:41.649Z,-2.28
2018-12-06T14:42:51.676Z,-2.34
2018-12-06T14:44:01.607Z,-2.33
2018-12-06T14:45:11.647Z,-2.29
2018-12-06T14:46:21.582Z,-2.25
2018-12-06T14:47:31.615Z,-2.25
2018-12-06T14:48:41.544Z,-2.33
2018-12-06T14:49:51.474Z,-2.34
2018-12-06T14:51:01.421Z,-2.33
2018-12-06T14:52:11.424Z,-2.37
2018-12-06T14:53:21.471Z,-2.4
2018-12-06T14:54:31.412Z,-2.32
2018-12-06T14:55:41.346Z,-2.42
2018-12-06T14:56:51.278Z,-2.32
2018-12-06T14:58:01.214Z,-2.42
2018-12-06T14:59:11.265Z,-2.42
2018-12-06T15:00:21.200Z,-2.42
2018-12-06T15:01:31.157Z,-2.4
2018-12-06T15:02:41.089Z,-2.45
2018-12-06T15:03:51.016Z,-2.42
2018-12-06T15:05:01.145Z,-2.37
2018-12-06T15:06:11.078Z,-2.4
2018-12-06T15:07:21.014Z,-2.44